sensor_id;sensor_type;location;lat;lon;timestamp;P1;durP1;ratioP1;P2;durP2;ratioP2
49980;SDS011;35871;51.594;7.138;2022-10-20T05:58:16;3.92;;;2.67;;
49980;SDS011;35871;51.594;7.138;2022-10-20T06:03:17;4.30;;;2.63;;
49980;SDS011;35871;51.594;7.138;2022-10-20T06:08:21;3.55;;;2.85;;
49980;SDS011;35871;51.594;7.138;2022-10-20T06:13:22;4.57;;;2.40;;
49980;SDS011;35871;51.594;7.138;2022-10-20T06:23:24;2.30;;;2.10;;
49980;SDS011;35871;51.594;7.138;2022-10-20T06:28:28;2.60;;;2.05;;
49980;SDS011;35871;51.594;7.138;2022-10-20T06:33:29;4.68;;;3.50;;
49980;SDS011;35871;51.594;7.138;2022-10-20T06:38:30;4.65;;;3.97;;
49980;SDS011;35871;51.594;7.138;2022-10-20T06:43:31;3.40;;;2.70;;
49980;SDS011;35871;51.594;7.138;2022-10-20T06:48:33;3.72;;;2.35;;
49980;SDS011;35871;51.594;7.138;2022-10-20T06:53:35;2.88;;;2.00;;
49980;SDS011;35871;51.594;7.138;2022-10-20T06:58:36;2.67;;;2.10;;
49980;SDS011;35871;51.594;7.138;2022-10-20T07:03:37;4.25;;;2.45;;
49980;SDS011;35871;51.594;7.138;2022-10-20T07:08:38;3.60;;;2.33;;
49980;SDS011;35871;51.594;7.138;2022-10-20T07:13:40;3.55;;;2.50;;
49980;SDS011;35871;51.594;7.138;2022-10-20T07:18:41;3.72;;;3.10;;
49980;SDS011;35871;51.594;7.138;2022-10-20T07:23:42;3.72;;;2.88;;
49980;SDS011;35871;51.594;7.138;2022-10-20T07:28:45;3.70;;;2.97;;
49980;SDS011;35871;51.594;7.138;2022-10-20T07:33:46;3.25;;;2.90;;
49980;SDS011;35871;51.594;7.138;2022-10-20T07:38:47;8.43;;;7.05;;
49980;SDS011;35871;51.594;7.138;2022-10-20T07:43:48;9.00;;;7.82;;
49980;SDS011;35871;51.594;7.138;2022-10-20T07:48:50;11.13;;;8.65;;
49980;SDS011;35871;51.594;7.138;2022-10-20T07:53:53;11.27;;;9.02;;
49980;SDS011;35871;51.594;7.138;2022-10-20T07:58:54;10.52;;;8.68;;
49980;SDS011;35871;51.594;7.138;2022-10-20T08:03:55;10.15;;;8.27;;
49980;SDS011;35871;51.594;7.138;2022-10-20T08:08:56;11.18;;;9.75;;
49980;SDS011;35871;51.594;7.138;2022-10-20T08:13:59;10.63;;;8.45;;
49980;SDS011;35871;51.594;7.138;2022-10-20T08:19:00;8.43;;;7.50;;
49980;SDS011;35871;51.594;7.138;2022-10-20T08:24:01;9.98;;;6.78;;
49980;SDS011;35871;51.594;7.138;2022-10-20T08:29:02;9.27;;;6.13;;
49980;SDS011;35871;51.594;7.138;2022-10-20T08:34:09;7.57;;;5.82;;
49980;SDS011;35871;51.594;7.138;2022-10-20T08:39:14;5.38;;;4.85;;
49980;SDS011;35871;51.594;7.138;2022-10-20T08:44:20;6.25;;;5.25;;
49980;SDS011;35871;51.594;7.138;2022-10-20T08:49:24;9.60;;;5.00;;
49980;SDS011;35871;51.594;7.138;2022-10-20T08:54:32;8.75;;;6.05;;
49980;SDS011;35871;51.594;7.138;2022-10-20T08:59:34;5.45;;;4.53;;
49980;SDS011;35871;51.594;7.138;2022-10-20T09:05:00;8.63;;;5.22;;
49980;SDS011;35871;51.594;7.138;2022-10-20T09:15:03;6.35;;;4.72;;
49980;SDS011;35871;51.594;7.138;2022-10-20T09:20:04;8.05;;;5.32;;
49980;SDS011;35871;51.594;7.138;2022-10-20T09:25:06;7.43;;;5.18;;
49980;SDS011;35871;51.594;7.138;2022-10-20T09:30:13;5.40;;;4.03;;
49980;SDS011;35871;51.594;7.138;2022-10-20T09:35:19;9.50;;;5.55;;
49980;SDS011;35871;51.594;7.138;2022-10-20T09:40:21;10.05;;;6.20;;
49980;SDS011;35871;51.594;7.138;2022-10-20T09:45:32;7.32;;;5.88;;
49980;SDS011;35871;51.594;7.138;2022-10-20T09:50:35;6.30;;;4.43;;
49980;SDS011;35871;51.594;7.138;2022-10-20T09:55:38;5.70;;;4.30;;
49980;SDS011;35871;51.594;7.138;2022-10-20T10:00:43;5.95;;;5.32;;
49980;SDS011;35871;51.594;7.138;2022-10-20T10:10:59;12.25;;;9.10;;
49980;SDS011;35871;51.594;7.138;2022-10-20T10:16:08;8.85;;;5.82;;
49980;SDS011;35871;51.594;7.138;2022-10-20T10:21:10;6.88;;;4.50;;
49980;SDS011;35871;51.594;7.138;2022-10-20T10:31:33;7.43;;;5.23;;
49980;SDS011;35871;51.594;7.138;2022-10-20T10:36:36;4.15;;;3.63;;
49980;SDS011;35871;51.594;7.138;2022-10-20T10:47:23;7.00;;;5.50;;
49980;SDS011;35871;51.594;7.138;2022-10-20T10:52:50;9.55;;;5.85;;
49980;SDS011;35871;51.594;7.138;2022-10-20T11:02:57;6.00;;;4.53;;
49980;SDS011;35871;51.594;7.138;2022-10-20T11:28:56;3.53;;;2.60;;
49980;SDS011;35871;51.594;7.138;2022-10-20T11:34:14;5.13;;;3.50;;
49980;SDS011;35871;51.594;7.138;2022-10-20T11:39:38;6.40;;;4.25;;
49980;SDS011;35871;51.594;7.138;2022-10-20T11:44:41;5.53;;;4.45;;
49980;SDS011;35871;51.594;7.138;2022-10-20T11:49:45;7.15;;;4.13;;
49980;SDS011;35871;51.594;7.138;2022-10-20T11:54:50;8.02;;;4.20;;
49980;SDS011;35871;51.594;7.138;2022-10-20T12:10:41;7.30;;;4.65;;
49980;SDS011;35871;51.594;7.138;2022-10-20T12:15:51;6.28;;;4.18;;
49980;SDS011;35871;51.594;7.138;2022-10-20T12:20:53;8.45;;;4.80;;
49980;SDS011;35871;51.594;7.138;2022-10-20T12:25:55;6.40;;;3.95;;
49980;SDS011;35871;51.594;7.138;2022-10-20T12:30:57;8.25;;;4.53;;
49980;SDS011;35871;51.594;7.138;2022-10-20T12:36:11;12.05;;;5.88;;
49980;SDS011;35871;51.594;7.138;2022-10-20T12:41:29;5.70;;;4.07;;
49980;SDS011;35871;51.594;7.138;2022-10-20T12:46:40;6.95;;;5.05;;
49980;SDS011;35871;51.594;7.138;2022-10-20T12:51:47;5.20;;;4.18;;
49980;SDS011;35871;51.594;7.138;2022-10-20T12:56:49;7.85;;;5.55;;
49980;SDS011;35871;51.594;7.138;2022-10-20T13:07:10;8.95;;;4.97;;
49980;SDS011;35871;51.594;7.138;2022-10-20T13:12:25;6.50;;;4.80;;
49980;SDS011;35871;51.594;7.138;2022-10-20T13:23:09;8.13;;;4.85;;
49980;SDS011;35871;51.594;7.138;2022-10-20T13:28:17;8.27;;;5.15;;
49980;SDS011;35871;51.594;7.138;2022-10-20T13:33:40;6.83;;;4.90;;
49980;SDS011;35871;51.594;7.138;2022-10-20T13:38:56;8.27;;;5.70;;
49980;SDS011;35871;51.594;7.138;2022-10-20T13:44:06;7.70;;;5.53;;
49980;SDS011;35871;51.594;7.138;2022-10-20T13:54:31;9.18;;;5.55;;
49980;SDS011;35871;51.594;7.138;2022-10-20T13:59:33;9.13;;;5.30;;
49980;SDS011;35871;51.594;7.138;2022-10-20T14:04:36;8.50;;;5.18;;
49980;SDS011;35871;51.594;7.138;2022-10-20T14:09:39;7.68;;;5.30;;
49980;SDS011;35871;51.594;7.138;2022-10-20T14:14:45;6.90;;;5.00;;
49980;SDS011;35871;51.594;7.138;2022-10-20T14:19:46;8.02;;;5.30;;
49980;SDS011;35871;51.594;7.138;2022-10-20T14:24:49;8.07;;;6.65;;
49980;SDS011;35871;51.594;7.138;2022-10-20T14:29:51;12.63;;;6.47;;
49980;SDS011;35871;51.594;7.138;2022-10-20T14:34:53;7.30;;;5.55;;
49980;SDS011;35871;51.594;7.138;2022-10-20T14:39:58;12.00;;;7.07;;
49980;SDS011;35871;51.594;7.138;2022-10-20T14:45:05;8.40;;;5.30;;
49980;SDS011;35871;51.594;7.138;2022-10-20T14:50:06;7.75;;;5.25;;
49980;SDS011;35871;51.594;7.138;2022-10-20T14:55:34;6.97;;;5.38;;
49980;SDS011;35871;51.594;7.138;2022-10-20T15:00:38;8.40;;;5.75;;
49980;SDS011;35871;51.594;7.138;2022-10-20T15:05:40;8.18;;;5.18;;
49980;SDS011;35871;51.594;7.138;2022-10-20T15:10:43;7.07;;;5.28;;
49980;SDS011;35871;51.594;7.138;2022-10-20T15:15:44;7.57;;;6.18;;
49980;SDS011;35871;51.594;7.138;2022-10-20T15:20:46;7.28;;;5.70;;
49980;SDS011;35871;51.594;7.138;2022-10-20T15:25:52;7.65;;;5.50;;
49980;SDS011;35871;51.594;7.138;2022-10-20T15:30:53;7.25;;;5.32;;
49980;SDS011;35871;51.594;7.138;2022-10-20T15:35:56;6.88;;;5.07;;
49980;SDS011;35871;51.594;7.138;2022-10-20T15:40:59;8.45;;;5.70;;
49980;SDS011;35871;51.594;7.138;2022-10-20T15:46:00;7.82;;;4.82;;
49980;SDS011;35871;51.594;7.138;2022-10-20T15:51:03;7.18;;;4.70;;
49980;SDS011;35871;51.594;7.138;2022-10-20T15:56:11;7.63;;;5.38;;
49980;SDS011;35871;51.594;7.138;2022-10-20T16:01:21;9.68;;;6.35;;
49980;SDS011;35871;51.594;7.138;2022-10-20T16:06:23;8.02;;;5.90;;
49980;SDS011;35871;51.594;7.138;2022-10-20T16:11:26;7.50;;;5.10;;
49980;SDS011;35871;51.594;7.138;2022-10-20T19:01:12;7.70;;;6.15;;
